createdAt,value
2017-08-26T03:30:18.041Z,22.50
2017-08-26T03:32:45.613Z,22.50
2017-08-26T03:35:13.257Z,22.40
2017-08-26T03:37:40.855Z,22.30
2017-08-26T03:40:09.339Z,22.30
2017-08-26T03:42:37.520Z,22.30
2017-08-26T03:45:05.138Z,22.40
2017-08-26T03:47:32.768Z,22.50
2017-08-26T03:50:00.383Z,22.40
2017-08-26T03:52:28.002Z,22.40
2017-08-26T03:54:55.599Z,22.40
2017-08-26T03:57:23.285Z,22.40
2017-08-26T03:59:50.885Z,22.50
2017-08-26T04:02:18.560Z,22.40
2017-08-26T04:04:46.163Z,22.30
2017-08-26T04:07:14.139Z,22.20
2017-08-26T04:09:41.739Z,22.20
2017-08-26T04:12:09.357Z,22.20
2017-08-26T04:14:37.034Z,22.00
2017-08-26T04:17:04.639Z,22.00
2017-08-26T04:19:32.641Z,22.20
2017-08-26T04:22:00.241Z,22.40
2017-08-26T04:24:27.845Z,22.50
2017-08-26T04:26:55.840Z,22.50
2017-08-26T04:29:23.443Z,22.60
2017-08-26T04:31:51.043Z,22.50
2017-08-26T04:34:19.123Z,22.50
2017-08-26T04:36:46.727Z,22.30
2017-08-26T04:39:14.343Z,22.40
2017-08-26T04:41:42.380Z,22.50
2017-08-26T04:44:10.023Z,22.60
2017-08-26T04:46:37.645Z,22.60
2017-08-26T04:49:05.286Z,22.50
2017-08-26T04:51:32.932Z,22.40
2017-08-26T04:54:00.552Z,22.50
2017-08-26T04:56:28.164Z,22.30
2017-08-26T04:58:55.811Z,22.20
2017-08-26T05:01:23.419Z,22.10
2017-08-26T05:03:51.498Z,22.00
2017-08-26T05:06:19.117Z,22.10
2017-08-26T05:08:46.748Z,21.90
2017-08-26T05:11:14.364Z,21.90
2017-08-26T05:13:42.021Z,22.00
2017-08-26T05:16:09.643Z,22.20
2017-08-26T05:18:37.263Z,22.40
2017-08-26T05:21:04.905Z,22.50
2017-08-26T05:23:32.515Z,22.60
2017-08-26T05:26:00.135Z,22.70
2017-08-26T05:28:27.845Z,22.80
2017-08-26T05:30:55.719Z,22.80
2017-08-26T05:33:23.411Z,22.80
2017-08-26T05:35:51.030Z,22.90
2017-08-26T05:38:18.654Z,23.10
2017-08-26T05:40:46.353Z,23.20
2017-08-26T05:43:14.405Z,23.40
2017-08-26T05:45:42.017Z,23.50
2017-08-26T05:48:09.626Z,23.60
2017-08-26T05:50:37.273Z,23.80
2017-08-26T05:53:04.879Z,23.80
2017-08-26T05:55:32.493Z,23.90
2017-08-26T05:58:00.102Z,23.90
2017-08-26T06:00:27.880Z,24.10
2017-08-26T06:02:55.490Z,24.30
2017-08-26T06:05:23.101Z,24.10
2017-08-26T06:07:50.756Z,24.30
2017-08-26T06:10:18.382Z,24.50
2017-08-26T06:12:46.017Z,24.70
2017-08-26T06:15:13.622Z,24.70
2017-08-26T06:17:41.247Z,24.70
2017-08-26T06:20:09.229Z,24.80
2017-08-26T06:22:37.545Z,24.90
2017-08-26T06:25:05.147Z,25.00
2017-08-26T06:27:32.817Z,25.10
2017-08-26T06:30:00.577Z,25.20
2017-08-26T06:32:28.206Z,25.20
2017-08-26T06:34:55.836Z,25.10
2017-08-26T06:37:23.516Z,25.20
2017-08-26T06:39:53.283Z,25.20
2017-08-26T06:42:20.894Z,25.30
2017-08-26T06:44:48.901Z,25.50
2017-08-26T06:47:16.507Z,25.60
2017-08-26T06:49:44.125Z,25.70
2017-08-26T06:52:11.911Z,25.80
2017-08-26T06:54:39.534Z,25.80
2017-08-26T06:57:07.167Z,25.80
2017-08-26T06:59:34.784Z,25.90
2017-08-26T07:02:03.050Z,26.10
2017-08-26T07:04:30.868Z,26.20
2017-08-26T07:06:58.529Z,26.30
2017-08-26T07:09:26.151Z,26.40
2017-08-26T07:11:54.121Z,26.60
2017-08-26T07:14:22.857Z,26.60
2017-08-26T07:16:50.529Z,26.70
2017-08-26T07:19:18.552Z,26.90
2017-08-26T07:21:46.164Z,27.10
2017-08-26T07:24:13.851Z,27.20
2017-08-26T07:26:41.826Z,27.20
2017-08-26T07:29:09.476Z,27.40
2017-08-26T07:31:37.450Z,27.50
2017-08-26T07:34:06.231Z,27.70
2017-08-26T07:36:34.151Z,27.70
2017-08-26T07:39:01.788Z,27.70
2017-08-26T07:41:29.839Z,27.80
2017-08-26T07:43:57.466Z,27.70
2017-08-26T07:46:25.078Z,27.80
2017-08-26T07:48:53.134Z,27.90
2017-08-26T07:51:20.738Z,27.80
2017-08-26T07:53:48.361Z,28.00
2017-08-26T07:56:16.288Z,28.10
2017-08-26T07:58:43.928Z,28.10
2017-08-26T08:01:12.527Z,28.20
2017-08-26T08:03:40.518Z,27.90
2017-08-26T08:06:08.141Z,28.30
2017-08-26T08:08:35.746Z,28.60
2017-08-26T08:11:03.671Z,28.60
2017-08-26T08:13:31.321Z,28.80
2017-08-26T08:15:59.245Z,29.10
2017-08-26T08:18:26.902Z,29.10
2017-08-26T08:20:54.526Z,29.10
2017-08-26T08:23:22.159Z,29.10
2017-08-26T08:25:49.805Z,29.20
2017-08-26T08:28:17.455Z,29.40
2017-08-26T08:30:45.081Z,29.20
2017-08-26T08:33:13.093Z,29.50
2017-08-26T08:35:40.882Z,29.40
2017-08-26T08:38:08.818Z,29.60
2017-08-26T08:40:36.458Z,29.80
2017-08-26T08:43:04.064Z,30.00
2017-08-26T08:45:31.713Z,30.40
2017-08-26T08:47:59.392Z,30.60
2017-08-26T08:50:27.049Z,30.60
2017-08-26T08:52:54.669Z,31.40
2017-08-26T08:55:22.663Z,31.30
2017-08-26T08:57:50.278Z,31.70
2017-08-26T09:00:17.927Z,32.60
2017-08-26T09:02:45.921Z,33.20
2017-08-26T09:05:13.521Z,34.10
2017-08-26T09:07:42.206Z,34.80
2017-08-26T09:10:10.311Z,35.20
2017-08-26T09:12:37.930Z,35.80
2017-08-26T09:15:05.572Z,36.60
2017-08-26T09:17:33.554Z,37.20
2017-08-26T09:20:01.204Z,38.20
2017-08-26T09:22:28.830Z,38.90
2017-08-26T09:24:56.957Z,38.80
2017-08-26T09:27:24.585Z,39.10
2017-08-26T09:29:52.207Z,40.30
2017-08-26T09:32:20.655Z,41.40
2017-08-26T09:34:48.280Z,41.60
2017-08-26T09:37:15.887Z,41.80
2017-08-26T09:39:43.914Z,42.40
2017-08-26T09:42:11.522Z,42.00
2017-08-26T09:44:39.141Z,40.80
2017-08-26T09:47:07.103Z,41.00
2017-08-26T09:49:34.752Z,42.20
2017-08-26T09:52:02.592Z,43.10
2017-08-26T09:54:30.626Z,44.40
2017-08-26T09:56:58.286Z,45.50
2017-08-26T09:59:25.913Z,46.00
2017-08-26T10:01:54.276Z,46.20
2017-08-26T10:04:22.494Z,46.70
2017-08-26T10:06:50.138Z,47.10
2017-08-26T10:09:19.037Z,47.60
2017-08-26T10:11:46.672Z,48.00
2017-08-26T10:14:14.483Z,48.40
2017-08-26T10:16:42.585Z,48.30
2017-08-26T10:19:10.211Z,48.90
2017-08-26T10:21:37.818Z,49.60
2017-08-26T10:24:05.853Z,50.20
2017-08-26T10:26:34.374Z,50.60
2017-08-26T10:29:02.030Z,50.20
2017-08-26T10:31:30.187Z,50.70
2017-08-26T10:33:57.961Z,50.80
2017-08-26T10:36:25.629Z,51.20
2017-08-26T10:38:53.616Z,50.30
2017-08-26T10:41:21.225Z,50.70
2017-08-26T10:43:48.837Z,50.70
2017-08-26T10:46:16.819Z,51.60
2017-08-26T10:48:44.473Z,52.00
2017-08-26T10:51:12.082Z,51.60
2017-08-26T10:53:40.246Z,51.10
2017-08-26T10:56:07.882Z,50.70
2017-08-26T10:58:35.573Z,51.80
2017-08-26T11:01:03.568Z,52.60
2017-08-26T11:03:31.181Z,52.70
2017-08-26T11:05:58.792Z,51.70
2017-08-26T11:08:27.562Z,50.40
2017-08-26T11:10:55.179Z,50.40
2017-08-26T11:13:22.801Z,50.00
2017-08-26T11:15:50.956Z,50.50
2017-08-26T11:18:19.178Z,51.30
2017-08-26T11:20:46.808Z,51.10
2017-08-26T11:23:14.854Z,51.60
2017-08-26T11:25:42.482Z,51.60
2017-08-26T11:28:10.128Z,51.10
2017-08-26T11:30:38.152Z,51.10
2017-08-26T11:33:05.769Z,50.00
2017-08-26T11:35:33.397Z,48.60
2017-08-26T11:38:01.445Z,47.40
2017-08-26T11:40:29.034Z,46.80
2017-08-26T11:42:56.639Z,46.10
2017-08-26T11:45:24.648Z,45.30
2017-08-26T11:47:52.249Z,44.60
2017-08-26T11:50:19.862Z,43.80
2017-08-26T11:52:47.833Z,43.80
2017-08-26T11:55:15.462Z,42.70
2017-08-26T11:57:43.185Z,42.80
2017-08-26T12:00:11.358Z,42.80
2017-08-26T12:02:39.006Z,42.30
2017-08-26T12:05:06.626Z,41.00
2017-08-26T12:07:34.647Z,40.60
2017-08-26T12:10:02.256Z,40.10
2017-08-26T12:12:29.871Z,40.00
2017-08-26T12:14:58.109Z,39.80
2017-08-26T12:17:25.735Z,39.50
2017-08-26T12:19:53.446Z,39.10
2017-08-26T12:22:21.393Z,39.00
2017-08-26T12:24:48.992Z,38.50
2017-08-26T12:27:16.601Z,37.90
2017-08-26T12:29:44.567Z,37.70
2017-08-26T12:32:12.185Z,37.30
2017-08-26T12:34:39.868Z,37.10
2017-08-26T12:37:07.997Z,36.90
2017-08-26T12:39:35.633Z,36.20
2017-08-26T12:42:03.271Z,36.70
2017-08-26T12:44:31.276Z,37.00
2017-08-26T12:46:58.881Z,37.00
2017-08-26T12:49:26.524Z,36.40
2017-08-26T12:51:54.612Z,36.00
2017-08-26T12:54:22.446Z,35.80
2017-08-26T12:56:50.242Z,35.40
2017-08-26T12:59:18.286Z,35.20
2017-08-26T13:01:45.892Z,35.10
2017-08-26T13:04:13.529Z,35.00
2017-08-26T13:06:41.512Z,34.90
2017-08-26T13:09:09.147Z,35.30
2017-08-26T13:11:36.783Z,35.40
2017-08-26T13:14:04.871Z,35.20
2017-08-26T13:16:32.478Z,35.20
2017-08-26T13:19:00.154Z,35.10
2017-08-26T13:21:28.137Z,35.10
2017-08-26T13:23:55.759Z,35.00
2017-08-26T13:26:23.397Z,34.80
2017-08-26T13:28:51.497Z,34.50
2017-08-26T13:31:19.166Z,34.50
2017-08-26T13:33:46.813Z,34.60
2017-08-26T13:36:14.902Z,34.60
2017-08-26T13:38:42.555Z,34.70
2017-08-26T13:41:10.162Z,34.70
2017-08-26T13:43:39.075Z,34.70
2017-08-26T13:46:06.707Z,34.50
2017-08-26T13:48:34.343Z,34.50
2017-08-26T13:51:02.459Z,34.50
2017-08-26T13:53:30.801Z,34.40
2017-08-26T13:55:58.442Z,34.30
2017-08-26T13:58:26.041Z,34.00
2017-08-26T14:00:53.648Z,33.90
2017-08-26T14:03:21.322Z,33.90
2017-08-26T14:05:48.948Z,34.00
2017-08-26T14:08:16.599Z,34.00
2017-08-26T14:10:44.218Z,34.10
2017-08-26T14:13:12.200Z,33.90
2017-08-26T14:15:39.811Z,33.70
2017-08-26T14:18:07.512Z,33.60
2017-08-26T14:20:35.184Z,33.60
2017-08-26T14:23:02.846Z,33.50
2017-08-26T14:25:30.455Z,33.30
2017-08-26T14:27:58.070Z,33.30
2017-08-26T14:30:26.222Z,33.30
2017-08-26T14:32:53.854Z,33.30
2017-08-26T14:35:21.511Z,33.40
2017-08-26T14:37:49.162Z,33.30
2017-08-26T14:40:16.787Z,33.00
2017-08-26T14:42:44.458Z,32.80
2017-08-26T14:45:12.073Z,32.70
2017-08-26T14:47:39.702Z,32.70
2017-08-26T14:50:07.445Z,32.80
2017-08-26T14:52:35.471Z,32.50
2017-08-26T14:55:03.147Z,32.50
2017-08-26T14:57:31.036Z,32.50
2017-08-26T14:59:58.732Z,32.60
2017-08-26T15:02:26.380Z,32.70
2017-08-26T15:04:54.123Z,32.60
2017-08-26T15:07:21.774Z,32.40
2017-08-26T15:09:49.814Z,32.50
2017-08-26T15:12:17.485Z,32.60
2017-08-26T15:14:45.094Z,32.60
2017-08-26T15:17:13.142Z,32.60
2017-08-26T15:19:40.790Z,32.40
2017-08-26T15:22:08.492Z,32.30
2017-08-26T15:24:36.597Z,32.20
2017-08-26T15:27:04.494Z,32.10
2017-08-26T15:29:32.185Z,32.10
2017-08-26T15:32:00.166Z,32.00
2017-08-26T15:34:27.821Z,31.90
2017-08-26T15:36:55.437Z,32.00
2017-08-26T15:39:23.481Z,32.20
2017-08-26T15:41:51.176Z,32.20
2017-08-26T15:44:18.824Z,32.10
2017-08-26T15:46:47.624Z,31.80
2017-08-26T15:49:15.312Z,31.80
2017-08-26T15:51:43.041Z,31.70
2017-08-26T15:54:11.065Z,31.50
2017-08-26T15:56:38.750Z,31.60
2017-08-26T15:59:06.384Z,31.40
2017-08-26T16:01:34.575Z,31.60
2017-08-26T16:04:02.230Z,31.50
2017-08-26T16:06:29.863Z,31.20
2017-08-26T16:08:59.818Z,31.20
2017-08-26T16:11:27.466Z,31.40
2017-08-26T16:13:55.093Z,31.30
2017-08-26T16:16:23.119Z,31.40
2017-08-26T16:18:50.753Z,31.60
2017-08-26T16:21:18.740Z,31.50
2017-08-26T16:23:47.073Z,31.30
2017-08-26T16:26:14.678Z,31.10
2017-08-26T16:28:42.289Z,31.00
2017-08-26T16:31:10.404Z,31.20
2017-08-26T16:33:38.255Z,31.40
2017-08-26T16:36:05.984Z,31.40
2017-08-26T16:38:34.017Z,31.10
2017-08-26T16:41:01.645Z,31.00
2017-08-26T16:43:29.263Z,31.00
2017-08-26T16:45:57.332Z,31.00
2017-08-26T16:48:24.949Z,31.10
2017-08-26T16:50:52.645Z,31.20
2017-08-26T16:53:20.941Z,31.10
2017-08-26T16:55:48.586Z,31.10
2017-08-26T16:58:16.206Z,31.00
2017-08-26T17:00:44.218Z,30.90
2017-08-26T17:03:11.845Z,30.70
2017-08-26T17:05:39.458Z,30.70
2017-08-26T17:08:07.676Z,30.80
2017-08-26T17:10:35.353Z,30.50
2017-08-26T17:13:02.989Z,30.50
2017-08-26T17:15:31.107Z,30.50
2017-08-26T17:17:58.741Z,30.70
2017-08-26T17:20:26.362Z,30.90
2017-08-26T17:22:54.406Z,31.00
2017-08-26T17:25:22.019Z,31.10
2017-08-26T17:27:49.666Z,31.00
2017-08-26T17:30:17.738Z,30.90
2017-08-26T17:32:45.349Z,30.90
2017-08-26T17:35:13.011Z,30.90
2017-08-26T17:37:41.094Z,30.90
2017-08-26T17:40:08.779Z,30.80
2017-08-26T17:42:36.426Z,30.70
2017-08-26T17:45:04.461Z,30.60
2017-08-26T17:47:32.120Z,30.60
2017-08-26T17:49:59.765Z,30.50
2017-08-26T17:52:27.778Z,30.40
2017-08-26T17:54:55.453Z,30.30
2017-08-26T17:57:23.068Z,30.20
2017-08-26T17:59:51.069Z,30.10
2017-08-26T18:02:18.677Z,30.10
2017-08-26T18:04:46.320Z,30.00
2017-08-26T18:07:14.275Z,29.90
2017-08-26T18:09:41.904Z,29.80
2017-08-26T18:12:09.569Z,29.60
2017-08-26T18:14:37.697Z,29.50
2017-08-26T18:17:05.341Z,29.50
2017-08-26T18:19:32.973Z,29.50
2017-08-26T18:22:00.995Z,29.40
2017-08-26T18:24:28.610Z,29.50
2017-08-26T18:26:56.295Z,29.50
2017-08-26T18:29:24.410Z,29.40
2017-08-26T18:31:52.036Z,29.30
2017-08-26T18:34:20.047Z,29.20
2017-08-26T18:36:49.122Z,29.20
2017-08-26T18:39:16.791Z,29.10
2017-08-26T18:41:44.417Z,29.10
2017-08-26T18:44:12.458Z,29.00
2017-08-26T18:46:40.076Z,29.00
2017-08-26T18:49:07.705Z,28.90
2017-08-26T18:51:37.696Z,28.90
2017-08-26T18:54:05.659Z,28.90
2017-08-26T18:56:33.281Z,28.90
2017-08-26T18:59:01.270Z,28.80
2017-08-26T19:01:28.913Z,28.80
2017-08-26T19:03:56.673Z,28.70
2017-08-26T19:06:24.816Z,28.70
2017-08-26T19:08:52.464Z,28.60
2017-08-26T19:11:20.089Z,28.60
2017-08-26T19:13:48.103Z,28.50
2017-08-26T19:16:15.708Z,28.30
2017-08-26T19:18:43.336Z,28.10
2017-08-26T19:21:12.108Z,28.00
2017-08-26T19:23:39.711Z,27.90
2017-08-26T19:26:07.315Z,27.90
2017-08-26T19:28:35.313Z,27.90
2017-08-26T19:31:02.994Z,27.90
2017-08-26T19:33:30.628Z,27.80
2017-08-26T19:35:59.453Z,27.60
2017-08-26T19:38:27.078Z,27.60
2017-08-26T19:40:54.682Z,27.60
2017-08-26T19:43:22.814Z,27.60
2017-08-26T19:45:50.687Z,27.40
2017-08-26T19:48:18.589Z,27.40
2017-08-26T19:50:46.613Z,27.40
2017-08-26T19:53:14.224Z,27.40
2017-08-26T19:55:42.790Z,27.50
2017-08-26T19:58:10.782Z,27.50
2017-08-26T20:00:38.407Z,27.50
2017-08-26T20:03:06.045Z,27.40
2017-08-26T20:05:34.134Z,27.20
2017-08-26T20:08:01.800Z,27.20
2017-08-26T20:10:29.420Z,27.20
2017-08-26T20:12:57.403Z,27.00
2017-08-26T20:15:25.032Z,26.90
2017-08-26T20:17:52.792Z,26.80
2017-08-26T20:20:20.809Z,26.70
2017-08-26T20:22:48.680Z,26.70
2017-08-26T20:25:16.481Z,26.70
2017-08-26T20:27:44.506Z,26.70
2017-08-26T20:30:12.131Z,26.60
2017-08-26T20:32:39.753Z,26.60
2017-08-26T20:35:07.748Z,26.60
2017-08-26T20:37:35.366Z,26.60
2017-08-26T20:40:02.991Z,26.60
2017-08-26T20:42:31.028Z,26.60
2017-08-26T20:44:58.655Z,26.70
2017-08-26T20:47:26.296Z,26.70
2017-08-26T20:49:54.296Z,26.70
2017-08-26T20:52:21.996Z,26.80
2017-08-26T20:54:49.624Z,26.80
2017-08-26T20:57:17.612Z,26.80
2017-08-26T20:59:45.239Z,26.70
2017-08-26T21:02:12.862Z,26.50
2017-08-26T21:04:40.844Z,26.30
2017-08-26T21:07:08.489Z,26.20
2017-08-26T21:09:36.197Z,26.20
2017-08-26T21:12:04.204Z,26.10
2017-08-26T21:14:31.812Z,26.00
2017-08-26T21:16:59.461Z,26.00
2017-08-26T21:19:27.480Z,26.00
2017-08-26T21:21:55.086Z,26.20
2017-08-26T21:24:22.700Z,26.30
2017-08-26T21:26:50.850Z,26.30
2017-08-26T21:29:18.457Z,26.10
2017-08-26T21:31:46.894Z,26.00
2017-08-26T21:34:14.968Z,26.10
2017-08-26T21:36:42.618Z,25.80
2017-08-26T21:39:10.236Z,25.70
2017-08-26T21:41:38.261Z,25.80
2017-08-26T21:44:05.886Z,25.60
2017-08-26T21:46:33.511Z,25.60
2017-08-26T21:49:01.546Z,25.50
2017-08-26T21:51:29.163Z,25.40
2017-08-26T21:53:56.787Z,25.40
2017-08-26T21:56:24.845Z,25.40
2017-08-26T21:58:52.486Z,25.40
2017-08-26T22:01:20.099Z,25.30
2017-08-26T22:03:48.077Z,25.20
2017-08-26T22:06:15.703Z,25.10
2017-08-26T22:08:43.360Z,25.10
2017-08-26T22:11:11.432Z,25.10
2017-08-26T22:13:39.054Z,25.30
2017-08-26T22:16:06.658Z,25.30
2017-08-26T22:18:34.823Z,25.10
2017-08-26T22:21:02.455Z,25.00
2017-08-26T22:23:30.090Z,24.90
2017-08-26T22:25:58.109Z,24.80
2017-08-26T22:28:25.721Z,24.90
